Time;durP1;ratioP1;P1;durP2;ratioP2;P2;SDS_P1;SDS_P2;PMS_P1;PMS_P2;Temp;Humidity;BMP_temperature;BMP_pressure;BME280_temperature;BME280_humidity;BME280_pressure;Samples;Min_cycle;Max_cycle;Signal;HPM_P1;HPM_P2
2023/07/08 00:00:19;;;;;;;1999.90;999.90;;;18.60;99.90;;;;;;4918134;29;20052;-77
2023/07/08 00:02:45;;;;;;;1999.90;999.90;;;18.60;99.90;;;;;;4916694;29;20456;-78
2023/07/08 00:05:12;;;;;;;1999.90;999.90;;;18.50;99.90;;;;;;4916910;29;20086;-78
2023/07/08 00:07:39;;;;;;;1999.90;999.90;;;18.50;99.90;;;;;;4901603;29;20048;-77
2023/07/08 00:10:27;;;;;;;1999.90;999.90;;;18.50;99.90;;;;;;4918008;29;20052;-78
2023/07/08 00:12:55;;;;;;;1999.90;999.90;;;18.50;99.90;;;;;;4918517;29;20122;-77
2023/07/08 00:15:27;;;;;;;1999.90;999.90;;;18.50;99.90;;;;;;4917837;29;20083;-78
2023/07/08 00:17:53;;;;;;;1999.90;999.90;;;18.40;99.90;;;;;;4918495;29;20063;-78
2023/07/08 00:20:23;;;;;;;1999.90;999.90;;;18.40;99.90;;;;;;4917821;29;20408;-78
2023/07/08 00:22:51;;;;;;;1999.90;999.90;;;18.40;99.90;;;;;;4917107;29;20130;-78
2023/07/08 00:25:21;;;;;;;1999.90;999.90;;;18.40;99.90;;;;;;4917614;29;20048;-78
2023/07/08 00:27:48;;;;;;;1999.90;999.90;;;18.30;99.90;;;;;;4916984;29;20052;-78
2023/07/08 00:30:32;;;;;;;1999.90;999.90;;;18.30;99.90;;;;;;4917614;29;20055;-77
2023/07/08 00:32:58;;;;;;;1999.90;999.90;;;18.30;99.90;;;;;;4917233;29;20075;-78
2023/07/08 00:35:30;;;;;;;1999.90;999.90;;;18.30;99.90;;;;;;4917526;29;20077;-77
2023/07/08 00:38:01;;;;;;;1999.90;999.90;;;18.30;99.90;;;;;;4916627;29;20052;-77
2023/07/08 00:40:30;;;;;;;1999.90;999.90;;;18.30;99.90;;;;;;4916601;29;20048;-77
2023/07/08 00:42:56;;;;;;;1999.90;999.90;;;18.20;99.90;;;;;;4900757;29;20393;-78
2023/07/08 00:45:45;;;;;;;1999.90;999.90;;;18.20;99.90;;;;;;4916303;29;20442;-78
2023/07/08 00:48:28;;;;;;;1999.90;999.90;;;18.20;99.90;;;;;;4918237;29;20055;-77
2023/07/08 00:50:54;;;;;;;1999.90;999.90;;;18.20;99.90;;;;;;4917723;29;20381;-77
2023/07/08 00:53:33;;;;;;;1999.90;999.90;;;18.20;99.90;;;;;;4918237;29;20104;-78
2023/07/08 00:56:23;;;;;;;1999.90;999.90;;;18.20;99.90;;;;;;4917032;29;20393;-77
2023/07/08 00:59:03;;;;;;;1999.90;999.90;;;18.10;99.90;;;;;;4917165;29;20095;-77
2023/07/08 01:01:34;;;;;;;1999.90;999.90;;;18.20;99.90;;;;;;4916650;29;20113;-77
2023/07/08 01:04:06;;;;;;;1999.90;999.90;;;18.10;99.90;;;;;;4916335;29;20469;-77
2023/07/08 01:06:39;;;;;;;1999.90;999.90;;;18.10;99.90;;;;;;4917447;29;20044;-77
2023/07/08 01:09:07;;;;;;;1999.90;999.90;;;18.20;99.90;;;;;;4917363;29;20054;-77
2023/07/08 01:11:35;;;;;;;1999.90;999.90;;;18.10;99.90;;;;;;4917537;29;20155;-78
2023/07/08 01:14:03;;;;;;;1999.90;999.90;;;18.10;99.90;;;;;;4917655;29;20078;-77
2023/07/08 01:16:33;;;;;;;1999.90;999.90;;;18.10;99.90;;;;;;4921005;29;20054;-77
2023/07/08 01:19:00;;;;;;;1999.90;999.90;;;18.10;99.90;;;;;;4921759;29;20052;-77
2023/07/08 01:21:38;;;;;;;1999.90;999.90;;;18.10;99.90;;;;;;4920967;29;20048;-77
2023/07/08 01:24:10;;;;;;;1999.90;999.90;;;18.00;99.90;;;;;;4919839;29;20048;-77
2023/07/08 01:26:39;;;;;;;1999.90;999.90;;;18.00;99.90;;;;;;4920814;29;20044;-77
2023/07/08 01:29:07;;;;;;;1999.90;999.90;;;18.00;99.90;;;;;;4921430;29;20048;-77
2023/07/08 01:31:33;;;;;;;1999.90;999.90;;;18.00;99.90;;;;;;4919861;29;20508;-77
2023/07/08 01:34:00;;;;;;;1999.90;999.90;;;18.00;99.90;;;;;;4920743;29;20052;-77
2023/07/08 01:36:29;;;;;;;1999.90;999.90;;;18.00;99.90;;;;;;4920647;29;20393;-77
2023/07/08 01:38:55;;;;;;;1999.90;999.90;;;18.00;99.90;;;;;;4919706;29;20397;-78
2023/07/08 01:41:20;;;;;;;1999.90;999.90;;;18.00;99.90;;;;;;4921073;29;20059;-77
2023/07/08 01:43:46;;;;;;;1999.90;999.90;;;18.00;99.90;;;;;;4888284;29;20378;-77
2023/07/08 01:46:21;;;;;;;1999.90;999.90;;;18.00;99.90;;;;;;4919868;29;20056;-76
2023/07/08 01:48:53;;;;;;;1999.90;999.90;;;18.00;99.90;;;;;;4921117;29;20087;-77
2023/07/08 01:51:19;;;;;;;1999.90;999.90;;;17.90;99.90;;;;;;4920369;29;20044;-77
2023/07/08 01:53:45;;;;;;;1999.90;999.90;;;17.90;99.90;;;;;;4920412;29;20074;-78
2023/07/08 01:56:12;;;;;;;1999.90;999.90;;;17.90;99.90;;;;;;4919978;29;20048;-78
2023/07/08 01:58:39;;;;;;;1999.90;999.90;;;17.90;99.90;;;;;;4919403;29;20187;-77
2023/07/08 02:01:05;;;;;;;1999.90;999.90;;;17.90;99.90;;;;;;4920298;29;20139;-77
2023/07/08 02:03:31;;;;;;;1999.90;999.90;;;17.80;99.90;;;;;;4903585;29;20052;-77
2023/07/08 02:05:56;;;;;;;1999.90;999.90;;;17.80;99.90;;;;;;4920517;29;20055;-77
2023/07/08 02:08:23;;;;;;;1999.90;999.90;;;17.80;99.90;;;;;;4919998;29;20063;-78
2023/07/08 02:10:55;;;;;;;1999.90;999.90;;;17.80;99.90;;;;;;4903707;29;20058;-77
2023/07/08 02:13:22;;;;;;;1999.90;999.90;;;17.80;99.90;;;;;;4920137;29;20500;-77
2023/07/08 02:15:48;;;;;;;1999.90;999.90;;;17.80;99.90;;;;;;4919965;29;20355;-77
2023/07/08 02:18:15;;;;;;;1999.90;999.90;;;17.80;99.90;;;;;;4920032;29;20139;-77
2023/07/08 02:20:41;;;;;;;1999.90;999.90;;;17.70;99.90;;;;;;4920447;29;20131;-78
2023/07/08 02:23:07;;;;;;;1999.90;999.90;;;17.70;99.90;;;;;;4904014;29;20127;-77
2023/07/08 02:25:33;;;;;;;1999.90;999.90;;;17.70;99.90;;;;;;4918765;29;20476;-77
2023/07/08 02:27:58;;;;;;;1999.90;999.90;;;17.70;99.90;;;;;;4919144;29;20481;-78
2023/07/08 02:30:24;;;;;;;1999.90;999.90;;;17.70;99.90;;;;;;4919769;29;20083;-77
2023/07/08 02:32:56;;;;;;;1999.90;999.90;;;17.70;99.90;;;;;;4918771;29;20044;-77
2023/07/08 02:35:25;;;;;;;1999.90;999.90;;;17.70;99.90;;;;;;4920226;29;20389;-77
2023/07/08 02:37:51;;;;;;;1999.90;999.90;;;17.60;99.90;;;;;;4919644;29;20088;-77
2023/07/08 02:40:17;;;;;;;1999.90;999.90;;;17.60;99.90;;;;;;4918301;29;20060;-77
2023/07/08 02:42:43;;;;;;;1999.90;999.90;;;17.60;99.90;;;;;;4919428;29;20385;-76
2023/07/08 02:45:09;;;;;;;1999.90;999.90;;;17.60;99.90;;;;;;4918591;29;20044;-77
2023/07/08 02:47:35;;;;;;;1999.90;999.90;;;17.60;99.90;;;;;;4903534;29;20370;-77
2023/07/08 02:50:01;;;;;;;1999.90;999.90;;;17.60;99.90;;;;;;4903006;29;20139;-77
2023/07/08 02:52:26;;;;;;;1999.90;999.90;;;17.60;99.90;;;;;;4919378;29;20048;-77
2023/07/08 02:54:52;;;;;;;1999.90;999.90;;;17.60;99.90;;;;;;4919584;29;20107;-77
2023/07/08 02:57:18;;;;;;;1999.90;999.90;;;17.50;99.90;;;;;;4902563;29;20083;-77
2023/07/08 02:59:43;;;;;;;1999.90;999.90;;;17.50;99.90;;;;;;4918584;29;20052;-78
2023/07/08 03:02:09;;;;;;;1999.90;999.90;;;17.50;99.90;;;;;;4919173;29;20044;-77
2023/07/08 03:04:39;;;;;;;1999.90;999.90;;;17.50;99.90;;;;;;4919198;29;20187;-78
2023/07/08 03:07:11;;;;;;;1999.90;999.90;;;17.50;99.90;;;;;;4919671;29;20389;-77
2023/07/08 03:09:40;;;;;;;1999.90;999.90;;;17.50;99.90;;;;;;4917928;29;20131;-76
2023/07/08 03:12:07;;;;;;;1999.90;999.90;;;17.50;99.90;;;;;;4919800;29;20044;-76
2023/07/08 03:14:33;;;;;;;1999.90;999.90;;;17.50;99.90;;;;;;4918014;29;20055;-77
2023/07/08 03:16:58;;;;;;;1999.90;999.90;;;17.40;99.90;;;;;;4918601;29;20048;-77
2023/07/08 03:19:25;;;;;;;1999.90;999.90;;;17.40;99.90;;;;;;4918312;29;20136;-77
2023/07/08 03:21:50;;;;;;;1999.90;999.90;;;17.40;99.90;;;;;;4918843;29;20048;-77
2023/07/08 03:24:18;;;;;;;1999.90;999.90;;;17.40;99.90;;;;;;4917919;29;20194;-78
2023/07/08 03:26:45;;;;;;;1999.90;999.90;;;17.40;99.90;;;;;;4918680;29;20449;-76
2023/07/08 03:29:16;;;;;;;1999.90;999.90;;;17.40;99.90;;;;;;4917764;29;20515;-77
2023/07/08 03:31:42;;;;;;;1999.90;999.90;;;17.40;99.90;;;;;;4919241;29;20048;-77
2023/07/08 03:34:11;;;;;;;1999.90;999.90;;;17.40;99.90;;;;;;4917914;29;20070;-78
2023/07/08 03:36:48;;;;;;;1999.90;999.90;;;17.40;99.90;;;;;;4917048;29;20048;-77
2023/07/08 03:39:14;;;;;;;1999.90;999.90;;;17.40;99.90;;;;;;4902711;29;20059;-77
2023/07/08 03:41:40;;;;;;;1999.90;999.90;;;17.40;99.90;;;;;;4917173;29;20461;-77
2023/07/08 03:44:06;;;;;;;1999.90;999.90;;;17.40;99.90;;;;;;4918962;29;20131;-77
2023/07/08 03:46:32;;;;;;;1999.90;999.90;;;17.40;99.90;;;;;;4917711;29;20132;-77
2023/07/08 03:48:57;;;;;;;1999.90;999.90;;;17.40;99.90;;;;;;4917892;29;20052;-77
2023/07/08 03:51:31;;;;;;;1999.90;999.90;;;17.40;99.90;;;;;;4917118;29;20052;-77
2023/07/08 03:53:57;;;;;;;1999.90;999.90;;;17.40;99.90;;;;;;4918521;29;20484;-77
2023/07/08 03:56:23;;;;;;;1999.90;999.90;;;17.40;99.90;;;;;;4918086;29;20056;-76
2023/07/08 03:58:49;;;;;;;1999.90;999.90;;;17.40;99.90;;;;;;4917425;29;20051;-77
2023/07/08 04:01:21;;;;;;;1999.90;999.90;;;17.40;99.90;;;;;;4918090;29;20048;-77
2023/07/08 04:03:47;;;;;;;1999.90;999.90;;;17.30;99.90;;;;;;4917964;29;20131;-77
2023/07/08 04:06:14;;;;;;;1999.90;999.90;;;17.40;99.90;;;;;;4918005;29;20044;-76
2023/07/08 04:08:39;;;;;;;1999.90;999.90;;;17.30;99.90;;;;;;4918219;29;20056;-77
2023/07/08 04:11:05;;;;;;;1999.90;999.90;;;17.30;99.90;;;;;;4917964;29;20051;-77
2023/07/08 04:13:32;;;;;;;1999.90;999.90;;;17.40;99.90;;;;;;4917913;29;20099;-77
2023/07/08 04:16:01;;;;;;;1999.90;999.90;;;17.40;99.90;;;;;;4917803;29;20044;-77
2023/07/08 04:18:27;;;;;;;1999.90;999.90;;;17.30;99.90;;;;;;4918135;29;20512;-78
2023/07/08 04:20:52;;;;;;;1999.90;999.90;;;17.30;99.90;;;;;;4917747;29;20084;-77
2023/07/08 04:23:19;;;;;;;1999.90;999.90;;;17.30;99.90;;;;;;4916620;29;20044;-77
2023/07/08 04:25:46;;;;;;;1999.90;999.90;;;17.30;99.90;;;;;;4916940;29;20062;-77
2023/07/08 04:28:12;;;;;;;1999.90;999.90;;;17.30;99.90;;;;;;4917695;29;20048;-77
2023/07/08 04:30:40;;;;;;;1999.90;999.90;;;17.40;99.90;;;;;;4917620;29;20103;-78
2023/07/08 04:33:14;;;;;;;1999.90;999.90;;;17.40;99.90;;;;;;4917678;29;20056;-76
2023/07/08 04:35:41;;;;;;;1999.90;999.90;;;17.30;99.90;;;;;;4916782;29;20047;-77
2023/07/08 04:38:21;;;;;;;1999.90;999.90;;;17.40;99.90;;;;;;4917574;29;20088;-77
2023/07/08 04:40:47;;;;;;;1999.90;999.90;;;17.40;99.90;;;;;;4918223;29;20569;-77
2023/07/08 04:43:13;;;;;;;1999.90;999.90;;;17.40;99.90;;;;;;4916517;29;20509;-77
2023/07/08 04:45:44;;;;;;;1999.90;999.90;;;17.40;99.90;;;;;;4917505;29;20080;-77
2023/07/08 04:48:16;;;;;;;1999.90;999.90;;;17.40;99.90;;;;;;4917770;29;20119;-77
2023/07/08 04:50:44;;;;;;;1999.90;999.90;;;17.40;99.90;;;;;;4917745;29;20052;-77
2023/07/08 04:53:11;;;;;;;1999.90;999.90;;;17.40;99.90;;;;;;4917482;29;20056;-78
2023/07/08 04:55:47;;;;;;;1999.90;999.90;;;17.50;99.90;;;;;;4917138;29;20378;-77
2023/07/08 04:58:12;;;;;;;1999.90;999.90;;;17.50;99.90;;;;;;4901226;29;20055;-78
2023/07/08 05:00:38;;;;;;;1999.90;999.90;;;17.50;99.90;;;;;;4916423;29;20144;-77
2023/07/08 05:03:04;;;;;;;1999.90;999.90;;;17.50;99.90;;;;;;4916307;29;20044;-77
2023/07/08 05:05:30;;;;;;;1999.90;999.90;;;17.50;99.90;;;;;;4917253;29;20103;-77
2023/07/08 05:07:55;;;;;;;1999.90;999.90;;;17.60;99.90;;;;;;4916932;29;20048;-77
2023/07/08 05:10:22;;;;;;;1999.90;999.90;;;17.60;99.90;;;;;;4917259;29;20051;-78
2023/07/08 05:12:48;;;;;;;1999.90;999.90;;;17.60;99.90;;;;;;4900653;29;20044;-77
2023/07/08 05:15:14;;;;;;;1999.90;999.90;;;17.60;99.90;;;;;;4917721;29;20052;-77
2023/07/08 05:17:40;;;;;;;1999.90;999.90;;;17.60;99.90;;;;;;4917134;29;20134;-77
2023/07/08 05:20:08;;;;;;;1999.90;999.90;;;17.70;99.90;;;;;;4916485;29;20159;-78
2023/07/08 05:22:35;;;;;;;1999.90;999.90;;;17.70;99.90;;;;;;4916440;29;20059;-77
2023/07/08 05:25:01;;;;;;;1999.90;999.90;;;17.70;99.90;;;;;;4917112;29;20044;-77
2023/07/08 05:27:27;;;;;;;1999.90;999.90;;;17.70;99.90;;;;;;4917128;29;20048;-77
2023/07/08 05:29:52;;;;;;;1999.90;999.90;;;17.80;99.90;;;;;;4917108;29;20048;-76
2023/07/08 05:32:19;;;;;;;1999.90;999.90;;;17.80;99.90;;;;;;4915900;29;20044;-77
2023/07/08 05:34:44;;;;;;;1999.90;999.90;;;17.80;99.90;;;;;;4915865;29;20086;-79
2023/07/08 05:37:11;;;;;;;1999.90;999.90;;;17.80;99.90;;;;;;4916948;29;20079;-77
2023/07/08 05:39:37;;;;;;;1999.90;999.90;;;17.90;99.90;;;;;;4917012;29;20099;-77
2023/07/08 05:42:03;;;;;;;1999.90;999.90;;;17.90;99.90;;;;;;4917032;29;20068;-77
2023/07/08 05:44:29;;;;;;;1999.90;999.90;;;17.90;99.90;;;;;;4900031;29;20056;-78
2023/07/08 05:46:54;;;;;;;1999.90;999.90;;;17.90;99.90;;;;;;4916898;29;20055;-78
2023/07/08 05:49:20;;;;;;;1999.90;999.90;;;18.00;99.90;;;;;;4916634;29;20052;-78
2023/07/08 05:51:47;;;;;;;1999.90;999.90;;;18.00;99.90;;;;;;4916742;29;20135;-77
2023/07/08 05:54:13;;;;;;;1999.90;999.90;;;18.10;99.90;;;;;;4916910;29;20502;-76
2023/07/08 05:56:39;;;;;;;1999.90;999.90;;;18.10;99.90;;;;;;4916683;29;20477;-77
2023/07/08 05:59:05;;;;;;;1999.90;999.90;;;18.10;99.90;;;;;;4916841;29;20054;-76
2023/07/08 06:01:31;;;;;;;1999.90;999.90;;;18.10;99.90;;;;;;4919134;29;20135;-77
2023/07/08 06:03:58;;;;;;;1999.90;999.90;;;18.20;99.90;;;;;;4920049;29;20143;-77
2023/07/08 06:06:24;;;;;;;1999.90;999.90;;;18.20;99.90;;;;;;4920184;29;20052;-77
2023/07/08 06:08:50;;;;;;;1999.90;999.90;;;18.20;99.90;;;;;;4919005;29;20044;-77
2023/07/08 06:11:16;;;;;;;1999.90;999.90;;;18.30;99.90;;;;;;4920670;29;20122;-77
2023/07/08 06:13:42;;;;;;;1999.90;999.90;;;18.30;99.90;;;;;;4920671;29;20052;-77
2023/07/08 06:16:08;;;;;;;1999.90;999.90;;;18.40;99.90;;;;;;4919743;29;20052;-77
2023/07/08 06:18:33;;;;;;;1999.90;999.90;;;18.40;99.90;;;;;;4919287;29;20133;-78
2023/07/08 06:20:59;;;;;;;1999.90;999.90;;;18.50;99.90;;;;;;4887732;29;20441;-77
2023/07/08 06:23:26;;;;;;;1999.90;999.90;;;18.50;99.90;;;;;;4904044;29;20059;-77
2023/07/08 06:25:52;;;;;;;1999.90;999.90;;;18.60;99.90;;;;;;4919779;29;20044;-76
2023/07/08 06:28:17;;;;;;;1999.90;999.90;;;18.60;99.90;;;;;;4920132;29;20059;-76
2023/07/08 06:30:44;;;;;;;1999.90;999.90;;;18.70;99.90;;;;;;4919784;29;20127;-77
2023/07/08 06:33:11;;;;;;;1999.90;999.90;;;18.70;99.90;;;;;;4919024;29;20059;-77
2023/07/08 06:35:38;;;;;;;1999.90;999.90;;;18.80;99.90;;;;;;4920130;29;20048;-77
2023/07/08 06:38:03;;;;;;;1999.90;999.90;;;18.80;99.90;;;;;;4919461;29;20438;-75
2023/07/08 06:40:30;;;;;;;1999.90;999.90;;;18.90;99.90;;;;;;4919489;29;20056;-76
2023/07/08 06:42:55;;;;;;;1999.90;999.90;;;18.90;99.90;;;;;;4919499;29;20055;-77
2023/07/08 06:45:21;;;;;;;1999.90;999.90;;;19.00;99.90;;;;;;4919510;29;20131;-76
2023/07/08 06:47:47;;;;;;;1999.90;999.90;;;19.00;99.90;;;;;;4919500;29;20389;-76
2023/07/08 06:50:13;;;;;;;1999.90;999.90;;;19.10;99.90;;;;;;4919360;29;20459;-76
2023/07/08 06:52:38;;;;;;;1999.90;999.90;;;19.10;99.90;;;;;;4919902;29;20044;-76
2023/07/08 06:55:08;;;;;;;1999.90;999.90;;;19.20;99.90;;;;;;4919336;29;20055;-76
2023/07/08 06:57:34;;;;;;;1999.90;999.90;;;19.20;99.90;;;;;;4919128;29;20052;-76
2023/07/08 07:00:00;;;;;;;1999.90;999.90;;;19.30;99.90;;;;;;4919222;29;20489;-78
2023/07/08 07:02:26;;;;;;;1999.90;999.90;;;19.30;99.90;;;;;;4902657;29;20056;-78
2023/07/08 07:04:52;;;;;;;1999.90;999.90;;;19.40;99.90;;;;;;4917998;29;20378;-77
2023/07/08 07:07:18;;;;;;;1999.90;999.90;;;19.40;99.90;;;;;;4919064;29;20059;-77
2023/07/08 07:09:43;;;;;;;1999.90;999.90;;;19.50;99.90;;;;;;4918901;29;20055;-80
2023/07/08 07:12:09;;;;;;;1999.90;999.90;;;19.50;99.90;;;;;;4918703;29;20426;-77
2023/07/08 07:14:35;;;;;;;1999.90;999.90;;;19.60;99.90;;;;;;4918086;29;20047;-77
2023/07/08 07:17:01;;;;;;;1999.90;999.90;;;19.70;99.90;;;;;;4918878;29;20500;-77
2023/07/08 07:19:26;;;;;;;1999.90;999.90;;;19.70;99.90;;;;;;4917983;29;20048;-77
2023/07/08 07:21:52;;;;;;;1999.90;999.90;;;19.80;99.90;;;;;;4902518;29;20059;-74
2023/07/08 07:24:18;;;;;;;1999.90;999.90;;;19.90;99.90;;;;;;4918969;29;20044;-75
2023/07/08 07:26:44;;;;;;;1999.90;999.90;;;19.90;99.90;;;;;;4919168;29;20040;-76
2023/07/08 07:29:10;;;;;;;1999.90;999.90;;;20.00;99.90;;;;;;4919097;29;20048;-77
2023/07/08 07:31:36;;;;;;;1999.90;999.90;;;20.10;99.90;;;;;;4917867;29;20412;-77
2023/07/08 07:34:01;;;;;;;1999.90;999.90;;;20.10;99.90;;;;;;4918818;29;20055;-76
2023/07/08 07:36:28;;;;;;;1999.90;999.90;;;20.20;99.90;;;;;;4918053;29;20089;-76
2023/07/08 07:38:54;;;;;;;1999.90;999.90;;;20.30;99.90;;;;;;4919240;29;20456;-75
2023/07/08 07:41:21;;;;;;;1999.90;999.90;;;20.40;99.90;;;;;;4918613;29;20143;-76
2023/07/08 07:43:46;;;;;;;1999.90;999.90;;;20.40;99.90;;;;;;4919390;29;20060;-76
2023/07/08 07:46:13;;;;;;;1999.90;999.90;;;20.50;99.90;;;;;;4917604;29;20552;-78
2023/07/08 07:48:39;;;;;;;1999.90;999.90;;;20.50;99.90;;;;;;4918509;29;20094;-76
2023/07/08 07:51:05;;;;;;;1999.90;999.90;;;20.60;99.90;;;;;;4918463;29;20059;-73
2023/07/08 07:53:31;;;;;;;1999.90;999.90;;;20.70;99.90;;;;;;4917519;29;20066;-76
2023/07/08 07:55:58;;;;;;;1999.90;999.90;;;20.80;99.90;;;;;;4918240;29;20397;-77
2023/07/08 07:58:24;;;;;;;1999.90;999.90;;;20.90;99.90;;;;;;4902404;29;20059;-76
2023/07/08 08:00:50;;;;;;;1999.90;999.90;;;20.90;99.90;;;;;;4919064;29;20052;-77
2023/07/08 08:03:16;;;;;;;1999.90;999.90;;;21.00;99.90;;;;;;4919044;29;20048;-77
2023/07/08 08:05:42;;;;;;;1999.90;999.90;;;21.10;99.90;;;;;;4918830;29;20059;-77
2023/07/08 08:08:08;;;;;;;1999.90;999.90;;;21.10;99.90;;;;;;4918139;29;20063;-76
2023/07/08 08:10:35;;;;;;;1999.90;999.90;;;21.20;99.90;;;;;;4917048;29;20071;-76
2023/07/08 08:13:01;;;;;;;1999.90;999.90;;;21.30;99.90;;;;;;4917473;29;20103;-76
2023/07/08 08:15:27;;;;;;;1999.90;999.90;;;21.40;99.90;;;;;;4918310;29;20051;-77
2023/07/08 08:17:53;;;;;;;1999.90;999.90;;;21.40;99.90;;;;;;4917978;29;20536;-76
2023/07/08 08:20:21;;;;;;;1999.90;999.90;;;21.40;99.90;;;;;;4918414;29;20052;-76
2023/07/08 08:22:47;;;;;;;1999.90;999.90;;;21.50;99.90;;;;;;4916845;29;20466;-76
2023/07/08 08:25:17;;;;;;;1999.90;999.90;;;21.60;99.90;;;;;;4917880;29;20107;-78
2023/07/08 08:27:43;;;;;;;1999.90;999.90;;;21.60;99.90;;;;;;4918624;29;20091;-76
2023/07/08 08:30:10;;;;;;;1999.90;999.90;;;21.70;99.90;;;;;;4917124;29;20052;-76
2023/07/08 08:32:36;;;;;;;1999.90;999.90;;;21.80;99.90;;;;;;4917761;29;20052;-77
2023/07/08 08:35:02;;;;;;;1999.90;999.90;;;21.90;99.90;;;;;;4918306;29;20060;-76
2023/07/08 08:37:27;;;;;;;1999.90;999.90;;;21.90;99.90;;;;;;4917625;29;20041;-76
2023/07/08 08:39:53;;;;;;;1999.90;999.90;;;22.00;99.90;;;;;;4917510;29;20051;-76
2023/07/08 08:42:32;;;;;;;1999.90;999.90;;;22.00;99.90;;;;;;4917703;29;20055;-77
2023/07/08 08:45:00;;;;;;;1999.90;999.90;;;22.20;99.90;;;;;;4918417;29;20055;-76
2023/07/08 08:47:40;;;;;;;1999.90;999.90;;;22.30;99.90;;;;;;4917354;29;20056;-76
2023/07/08 08:50:28;;;;;;;1999.90;999.90;;;22.40;99.90;;;;;;4916752;29;20512;-76
2023/07/08 08:52:55;;;;;;;1999.90;999.90;;;22.40;99.90;;;;;;4917191;29;20453;-76
2023/07/08 08:55:25;;;;;;;1999.90;999.90;;;22.50;99.90;;;;;;4917587;29;20128;-77
2023/07/08 08:58:13;;;;;;;1999.90;999.90;;;22.50;99.90;;;;;;4917666;29;20052;-77
2023/07/08 09:00:54;;;;;;;1999.90;999.90;;;22.60;99.90;;;;;;4916903;29;20055;-77
2023/07/08 09:03:32;;;;;;;1999.90;999.90;;;22.70;99.90;;;;;;4918094;29;20051;-77
2023/07/08 09:05:59;;;;;;;1999.90;999.90;;;22.70;99.90;;;;;;4918257;29;20040;-74
2023/07/08 09:08:32;;;;;;;1999.90;999.90;;;22.80;99.90;;;;;;4917852;29;20363;-75
2023/07/08 09:11:00;;;;;;;1999.90;999.90;;;22.90;99.90;;;;;;4917412;29;20544;-75
2023/07/08 09:13:33;;;;;;;1999.90;999.90;;;23.00;99.90;;;;;;4918037;29;20052;-75
2023/07/08 09:16:15;;;;;;;1999.90;999.90;;;23.10;99.90;;;;;;4916978;29;20500;-77
2023/07/08 09:19:06;;;;;;;1999.90;999.90;;;23.20;99.90;;;;;;4917740;29;20052;-75
2023/07/08 09:21:44;;;;;;;1999.90;999.90;;;23.30;99.90;;;;;;4903417;29;20067;-75
2023/07/08 09:24:18;;;;;;;1999.90;999.90;;;23.50;99.90;;;;;;4916364;29;20500;-76
2023/07/08 09:26:46;;;;;;;1999.90;999.90;;;23.50;99.90;;;;;;4917752;29;20465;-75
2023/07/08 09:29:12;;;;;;;1999.90;999.90;;;23.60;99.90;;;;;;4917089;29;20099;-75
2023/07/08 09:31:42;;;;;;;1999.90;999.90;;;23.70;99.90;;;;;;4917719;29;20421;-76
2023/07/08 09:34:13;;;;;;;1999.90;999.90;;;23.70;99.90;;;;;;4917695;29;20060;-78
2023/07/08 09:36:45;;;;;;;1999.90;999.90;;;23.80;99.90;;;;;;4920511;29;20187;-75
2023/07/08 09:39:13;;;;;;;1999.90;999.90;;;23.90;99.90;;;;;;4920884;29;20048;-76
2023/07/08 09:41:41;;;;;;;1999.90;999.90;;;23.90;99.90;;;;;;4919178;29;20064;-76
2023/07/08 09:44:15;;;;;;;1999.90;999.90;;;24.00;99.90;;;;;;4920653;29;20044;-75
2023/07/08 09:46:42;;;;;;;1999.90;999.90;;;24.00;99.90;;;;;;4921028;29;20044;-77
2023/07/08 09:49:22;;;;;;;1999.90;999.90;;;24.10;99.90;;;;;;4920236;29;20512;-77
2023/07/08 09:51:50;;;;;;;1999.90;999.90;;;24.20;99.90;;;;;;4921215;29;20051;-77
2023/07/08 09:54:20;;;;;;;1999.90;999.90;;;24.30;99.90;;;;;;4920503;29;20066;-76
2023/07/08 09:56:51;;;;;;;1999.90;999.90;;;24.30;99.90;;;;;;4921209;29;20051;-76
2023/07/08 09:59:21;;;;;;;1999.90;999.90;;;24.40;99.90;;;;;;4921262;29;20381;-75
2023/07/08 10:01:46;;;;;;;1999.90;999.90;;;24.50;99.90;;;;;;4920383;29;20169;-76
2023/07/08 10:04:12;;;;;;;1999.90;999.90;;;24.60;99.90;;;;;;4920285;29;20082;-77
2023/07/08 10:06:38;;;;;;;1999.90;999.90;;;24.70;99.90;;;;;;4919649;29;20099;-76
2023/07/08 10:09:13;;;;;;;1999.90;999.90;;;24.80;99.90;;;;;;4920298;29;20079;-76
2023/07/08 10:11:47;;;;;;;1999.90;999.90;;;24.80;99.90;;;;;;4920301;29;20039;-76
2023/07/08 10:14:31;;;;;;;1999.90;999.90;;;24.80;99.90;;;;;;4919517;29;20401;-77
2023/07/08 10:16:57;;;;;;;1999.90;999.90;;;24.80;99.90;;;;;;4904142;29;20058;-76
2023/07/08 10:19:23;;;;;;;1999.90;999.90;;;24.90;99.90;;;;;;4920825;29;20047;-77
2023/07/08 10:21:52;;;;;;;1999.90;999.90;;;25.00;99.90;;;;;;4920064;29;20508;-75
2023/07/08 10:24:30;;;;;;;1999.90;999.90;;;25.00;99.90;;;;;;4919113;29;20544;-76
2023/07/08 10:27:18;;;;;;;1999.90;999.90;;;25.00;99.90;;;;;;4920657;29;20092;-78
2023/07/08 10:30:21;;;;;;;1999.90;999.90;;;25.10;99.90;;;;;;4920482;29;20055;-78
2023/07/08 10:33:13;;;;;;;1999.90;999.90;;;25.20;99.90;;;;;;4919232;29;20044;-76
2023/07/08 10:36:10;;;;;;;1999.90;999.90;;;25.20;99.90;;;;;;4920285;29;20129;-76
2023/07/08 10:38:48;;;;;;;1999.90;999.90;;;25.30;99.90;;;;;;4917808;29;20060;-76
2023/07/08 10:41:30;;;;;;;1999.90;999.90;;;25.30;99.90;;;;;;4919658;29;20100;-76
2023/07/08 10:44:02;;;;;;;1999.90;999.90;;;25.50;99.90;;;;;;4919557;29;20488;-75
2023/07/08 10:46:36;;;;;;;1999.90;999.90;;;25.60;99.90;;;;;;4918852;29;20060;-76
2023/07/08 10:49:22;;;;;;;1999.90;999.90;;;25.70;99.90;;;;;;4919151;29;20060;-76
2023/07/08 10:52:14;;;;;;;1999.90;999.90;;;25.80;99.90;;;;;;4918911;29;20400;-76
2023/07/08 10:55:06;;;;;;;1999.90;999.90;;;25.80;99.90;;;;;;4919817;29;20382;-75
2023/07/08 10:57:50;;;;;;;1999.90;999.90;;;25.90;99.90;;;;;;4920142;29;20138;-78
2023/07/08 11:00:29;;;;;;;1999.90;999.90;;;26.00;99.90;;;;;;4919403;29;20052;-76
2023/07/08 11:02:57;;;;;;;1999.90;999.90;;;26.10;99.90;;;;;;4902915;29;20060;-75
2023/07/08 11:05:46;;;;;;;1999.90;999.90;;;26.10;99.90;;;;;;4919244;29;20051;-75
2023/07/08 11:08:16;;;;;;;1999.90;999.90;;;26.20;99.90;;;;;;4919287;29;20501;-76
2023/07/08 11:11:07;;;;;;;1999.90;999.90;;;26.20;99.90;;;;;;4919315;29;20083;-76
2023/07/08 11:13:39;;;;;;;1999.90;999.90;;;26.30;99.90;;;;;;4919975;29;20115;-76
2023/07/08 11:16:12;;;;;;;1999.90;999.90;;;26.30;99.90;;;;;;4919556;29;20392;-75
2023/07/08 11:18:52;;;;;;;1999.90;999.90;;;26.40;99.90;;;;;;4919825;29;20044;-76
2023/07/08 11:21:27;;;;;;;1999.90;999.90;;;26.40;99.90;;;;;;4918434;29;20389;-75
2023/07/08 11:24:17;;;;;;;1999.90;999.90;;;26.40;99.90;;;;;;4919320;29;20400;-76
2023/07/08 11:26:52;;;;;;;1999.90;999.90;;;26.60;99.90;;;;;;4918657;29;20052;-76
2023/07/08 11:29:23;;;;;;;1999.90;999.90;;;26.60;99.90;;;;;;4918620;29;20048;-76
2023/07/08 11:31:51;;;;;;;1999.90;999.90;;;26.70;99.90;;;;;;4917861;29;20056;-75
2023/07/08 11:34:19;;;;;;;1999.90;999.90;;;26.80;99.90;;;;;;4917604;29;20052;-75
2023/07/08 11:36:47;;;;;;;1999.90;999.90;;;26.80;99.90;;;;;;4917429;29;20054;-77
2023/07/08 11:39:42;;;;;;;1999.90;999.90;;;26.80;99.90;;;;;;4918431;29;20048;-74
2023/07/08 11:42:37;;;;;;;1999.90;999.90;;;26.90;99.90;;;;;;4918232;29;20095;-76
2023/07/08 11:45:15;;;;;;;1999.90;999.90;;;26.90;99.70;;;;;;4918140;29;20056;-76
2023/07/08 11:47:46;;;;;;;1999.90;999.90;;;26.90;99.50;;;;;;4918292;29;20488;-76
2023/07/08 11:50:28;;;;;;;1999.90;999.90;;;27.10;99.10;;;;;;4917599;29;20056;-75
2023/07/08 11:53:09;;;;;;;1999.90;999.90;;;27.10;99.20;;;;;;4917386;29;20052;-73
2023/07/08 11:55:47;;;;;;;1999.90;999.90;;;27.20;98.70;;;;;;4918703;29;20503;-74
2023/07/08 11:58:50;;;;;;;1999.90;999.90;;;27.20;98.60;;;;;;4916721;29;20060;-73
2023/07/08 12:01:45;;;;;;;1999.90;999.90;;;27.30;98.60;;;;;;4916861;29;20060;-74
2023/07/08 12:04:25;;;;;;;1999.90;999.90;;;27.30;98.20;;;;;;4918339;29;20485;-73
2023/07/08 12:07:11;;;;;;;1999.90;999.90;;;27.40;98.20;;;;;;4917315;29;20056;-74
2023/07/08 12:09:47;;;;;;;1999.90;999.90;;;27.50;98.20;;;;;;4917748;29;20052;-73
2023/07/08 12:12:29;;;;;;;1999.90;999.90;;;27.60;97.60;;;;;;4917665;29;20573;-73